sensor_id;sensor_type;location;lat;lon;timestamp;temperature;humidity
10419;DHT22;5256;48.728;9.140;2022-11-12T00:00:17;3.90;99.90
10419;DHT22;5256;48.728;9.140;2022-11-12T00:02:43;3.80;99.90
10419;DHT22;5256;48.728;9.140;2022-11-12T00:05:08;3.80;99.90
10419;DHT22;5256;48.728;9.140;2022-11-12T00:07:34;3.80;99.90
10419;DHT22;5256;48.728;9.140;2022-11-12T00:09:59;3.70;99.90
10419;DHT22;5256;48.728;9.140;2022-11-12T00:12:25;3.70;99.90
10419;DHT22;5256;48.728;9.140;2022-11-12T00:14:51;3.60;99.90
10419;DHT22;5256;48.728;9.140;2022-11-12T00:17:16;3.60;99.90
10419;DHT22;5256;48.728;9.140;2022-11-12T00:19:42;3.50;99.90
10419;DHT22;5256;48.728;9.140;2022-11-12T00:22:08;3.50;99.90
10419;DHT22;5256;48.728;9.140;2022-11-12T00:24:33;3.50;99.90
10419;DHT22;5256;48.728;9.140;2022-11-12T00:26:59;3.50;99.90
10419;DHT22;5256;48.728;9.140;2022-11-12T00:29:24;3.50;99.90
10419;DHT22;5256;48.728;9.140;2022-11-12T00:31:50;3.50;99.90
10419;DHT22;5256;48.728;9.140;2022-11-12T00:34:15;3.40;99.90
10419;DHT22;5256;48.728;9.140;2022-11-12T00:36:41;3.30;99.90
10419;DHT22;5256;48.728;9.140;2022-11-12T00:39:06;3.30;99.90
10419;DHT22;5256;48.728;9.140;2022-11-12T00:41:32;3.30;99.90
10419;DHT22;5256;48.728;9.140;2022-11-12T00:43:57;3.20;99.90
10419;DHT22;5256;48.728;9.140;2022-11-12T00:46:23;3.20;99.90
10419;DHT22;5256;48.728;9.140;2022-11-12T00:48:48;3.20;99.90
10419;DHT22;5256;48.728;9.140;2022-11-12T00:51:14;3.20;99.90
10419;DHT22;5256;48.728;9.140;2022-11-12T00:53:40;3.10;99.90
10419;DHT22;5256;48.728;9.140;2022-11-12T00:56:06;3.10;99.90
10419;DHT22;5256;48.728;9.140;2022-11-12T00:58:33;3.00;99.90
10419;DHT22;5256;48.728;9.140;2022-11-12T01:01:11;3.00;99.90
10419;DHT22;5256;48.728;9.140;2022-11-12T01:03:38;2.90;99.90
10419;DHT22;5256;48.728;9.140;2022-11-12T01:06:07;2.90;99.90
10419;DHT22;5256;48.728;9.140;2022-11-12T01:08:33;3.00;99.90
10419;DHT22;5256;48.728;9.140;2022-11-12T01:11:10;3.00;99.90
10419;DHT22;5256;48.728;9.140;2022-11-12T01:13:53;3.10;99.90
10419;DHT22;5256;48.728;9.140;2022-11-12T01:16:21;3.00;99.90
10419;DHT22;5256;48.728;9.140;2022-11-12T01:18:52;3.00;99.90
10419;DHT22;5256;48.728;9.140;2022-11-12T01:21:18;3.00;99.90
10419;DHT22;5256;48.728;9.140;2022-11-12T01:23:44;3.00;99.90
10419;DHT22;5256;48.728;9.140;2022-11-12T01:26:12;3.00;99.90
10419;DHT22;5256;48.728;9.140;2022-11-12T01:28:38;3.00;99.90
10419;DHT22;5256;48.728;9.140;2022-11-12T01:31:22;3.00;99.90
10419;DHT22;5256;48.728;9.140;2022-11-12T01:33:52;2.90;99.90
10419;DHT22;5256;48.728;9.140;2022-11-12T01:36:19;3.00;99.90
10419;DHT22;5256;48.728;9.140;2022-11-12T01:38:45;3.00;99.90
10419;DHT22;5256;48.728;9.140;2022-11-12T01:41:16;3.00;99.90
10419;DHT22;5256;48.728;9.140;2022-11-12T01:43:42;3.00;99.90
10419;DHT22;5256;48.728;9.140;2022-11-12T01:46:20;3.00;99.90
10419;DHT22;5256;48.728;9.140;2022-11-12T01:48:56;2.90;99.90
10419;DHT22;5256;48.728;9.140;2022-11-12T01:51:26;2.90;99.90
10419;DHT22;5256;48.728;9.140;2022-11-12T01:53:58;2.90;99.90
10419;DHT22;5256;48.728;9.140;2022-11-12T01:56:26;2.90;99.90
10419;DHT22;5256;48.728;9.140;2022-11-12T01:58:59;2.80;99.90
10419;DHT22;5256;48.728;9.140;2022-11-12T02:01:26;2.80;99.90
10419;DHT22;5256;48.728;9.140;2022-11-12T02:03:51;2.70;99.90
10419;DHT22;5256;48.728;9.140;2022-11-12T02:06:18;2.70;99.90
10419;DHT22;5256;48.728;9.140;2022-11-12T02:08:45;2.70;99.90
10419;DHT22;5256;48.728;9.140;2022-11-12T02:11:16;2.60;99.90
10419;DHT22;5256;48.728;9.140;2022-11-12T02:13:43;2.60;99.90
10419;DHT22;5256;48.728;9.140;2022-11-12T02:16:23;2.50;99.90
10419;DHT22;5256;48.728;9.140;2022-11-12T02:18:48;2.50;99.90
10419;DHT22;5256;48.728;9.140;2022-11-12T02:21:21;2.40;99.90
10419;DHT22;5256;48.728;9.140;2022-11-12T02:24:05;2.50;99.90
10419;DHT22;5256;48.728;9.140;2022-11-12T02:26:47;2.50;99.90
10419;DHT22;5256;48.728;9.140;2022-11-12T02:29:13;2.50;99.90
10419;DHT22;5256;48.728;9.140;2022-11-12T02:31:38;2.60;99.90
10419;DHT22;5256;48.728;9.140;2022-11-12T02:34:04;2.60;99.90
10419;DHT22;5256;48.728;9.140;2022-11-12T02:36:30;2.60;99.90
10419;DHT22;5256;48.728;9.140;2022-11-12T02:38:56;2.60;99.90
10419;DHT22;5256;48.728;9.140;2022-11-12T02:41:22;2.50;99.90
10419;DHT22;5256;48.728;9.140;2022-11-12T02:43:47;2.50;99.90
10419;DHT22;5256;48.728;9.140;2022-11-12T02:46:13;2.50;99.90
10419;DHT22;5256;48.728;9.140;2022-11-12T02:48:39;2.50;99.90
10419;DHT22;5256;48.728;9.140;2022-11-12T02:51:05;2.50;99.90
10419;DHT22;5256;48.728;9.140;2022-11-12T02:53:31;2.50;99.90
10419;DHT22;5256;48.728;9.140;2022-11-12T02:55:57;2.50;99.90
10419;DHT22;5256;48.728;9.140;2022-11-12T02:58:23;2.40;99.90
10419;DHT22;5256;48.728;9.140;2022-11-12T03:00:49;2.40;99.90
10419;DHT22;5256;48.728;9.140;2022-11-12T03:03:15;2.40;99.90
10419;DHT22;5256;48.728;9.140;2022-11-12T03:05:40;2.40;99.90
10419;DHT22;5256;48.728;9.140;2022-11-12T03:08:07;2.40;99.90
10419;DHT22;5256;48.728;9.140;2022-11-12T03:10:35;2.30;99.90
10419;DHT22;5256;48.728;9.140;2022-11-12T03:13:01;2.30;99.90
10419;DHT22;5256;48.728;9.140;2022-11-12T03:15:28;2.30;99.90
10419;DHT22;5256;48.728;9.140;2022-11-12T03:17:55;2.30;99.90
10419;DHT22;5256;48.728;9.140;2022-11-12T03:20:21;2.30;99.90
10419;DHT22;5256;48.728;9.140;2022-11-12T03:22:55;2.30;99.90
10419;DHT22;5256;48.728;9.140;2022-11-12T03:25:21;2.30;99.90
10419;DHT22;5256;48.728;9.140;2022-11-12T03:27:46;2.30;99.90
10419;DHT22;5256;48.728;9.140;2022-11-12T03:30:12;2.30;99.90
10419;DHT22;5256;48.728;9.140;2022-11-12T03:32:37;2.30;99.90
10419;DHT22;5256;48.728;9.140;2022-11-12T03:35:03;2.30;99.90
10419;DHT22;5256;48.728;9.140;2022-11-12T03:37:29;2.30;99.90
10419;DHT22;5256;48.728;9.140;2022-11-12T03:39:54;2.20;99.90
10419;DHT22;5256;48.728;9.140;2022-11-12T03:42:20;2.20;99.90
10419;DHT22;5256;48.728;9.140;2022-11-12T03:44:45;2.20;99.90
10419;DHT22;5256;48.728;9.140;2022-11-12T03:47:11;2.10;99.90
10419;DHT22;5256;48.728;9.140;2022-11-12T03:49:36;2.10;99.90
10419;DHT22;5256;48.728;9.140;2022-11-12T03:52:02;2.10;99.90
10419;DHT22;5256;48.728;9.140;2022-11-12T03:54:27;2.10;99.90
10419;DHT22;5256;48.728;9.140;2022-11-12T03:56:53;2.10;99.90
10419;DHT22;5256;48.728;9.140;2022-11-12T03:59:19;2.10;99.90
10419;DHT22;5256;48.728;9.140;2022-11-12T04:01:44;2.00;99.90
10419;DHT22;5256;48.728;9.140;2022-11-12T04:04:10;2.00;99.90
10419;DHT22;5256;48.728;9.140;2022-11-12T04:06:35;2.00;99.90
10419;DHT22;5256;48.728;9.140;2022-11-12T04:09:19;2.10;99.90
10419;DHT22;5256;48.728;9.140;2022-11-12T04:11:45;2.00;99.90
10419;DHT22;5256;48.728;9.140;2022-11-12T04:14:10;2.10;99.90
10419;DHT22;5256;48.728;9.140;2022-11-12T04:16:36;2.10;99.90
10419;DHT22;5256;48.728;9.140;2022-11-12T04:19:20;2.10;99.90
10419;DHT22;5256;48.728;9.140;2022-11-12T04:22:09;2.20;99.90
10419;DHT22;5256;48.728;9.140;2022-11-12T04:24:37;2.20;99.90
10419;DHT22;5256;48.728;9.140;2022-11-12T04:27:24;2.20;99.90
10419;DHT22;5256;48.728;9.140;2022-11-12T04:29:50;2.20;99.90
10419;DHT22;5256;48.728;9.140;2022-11-12T04:32:39;2.30;99.90
10419;DHT22;5256;48.728;9.140;2022-11-12T04:35:09;2.30;99.90
10419;DHT22;5256;48.728;9.140;2022-11-12T04:37:36;2.30;99.90
10419;DHT22;5256;48.728;9.140;2022-11-12T04:40:16;2.30;99.90
10419;DHT22;5256;48.728;9.140;2022-11-12T04:43:02;2.30;99.90
10419;DHT22;5256;48.728;9.140;2022-11-12T04:45:50;2.30;99.90
10419;DHT22;5256;48.728;9.140;2022-11-12T04:48:16;2.40;99.90
10419;DHT22;5256;48.728;9.140;2022-11-12T04:50:43;2.40;99.90
10419;DHT22;5256;48.728;9.140;2022-11-12T04:53:10;2.40;99.90
10419;DHT22;5256;48.728;9.140;2022-11-12T04:55:35;2.40;99.90
10419;DHT22;5256;48.728;9.140;2022-11-12T04:58:01;2.40;99.90
10419;DHT22;5256;48.728;9.140;2022-11-12T05:00:27;2.40;99.90
10419;DHT22;5256;48.728;9.140;2022-11-12T05:02:52;2.40;99.90
10419;DHT22;5256;48.728;9.140;2022-11-12T05:05:18;2.40;99.90
10419;DHT22;5256;48.728;9.140;2022-11-12T05:07:43;2.30;99.90
10419;DHT22;5256;48.728;9.140;2022-11-12T05:10:09;2.30;99.90
10419;DHT22;5256;48.728;9.140;2022-11-12T05:12:35;2.30;99.90
10419;DHT22;5256;48.728;9.140;2022-11-12T05:15:02;2.30;99.90
10419;DHT22;5256;48.728;9.140;2022-11-12T05:17:27;2.30;99.90
10419;DHT22;5256;48.728;9.140;2022-11-12T05:19:53;2.30;99.90
10419;DHT22;5256;48.728;9.140;2022-11-12T05:22:19;2.30;99.90
10419;DHT22;5256;48.728;9.140;2022-11-12T05:24:44;2.30;99.90
10419;DHT22;5256;48.728;9.140;2022-11-12T05:27:19;2.30;99.90
10419;DHT22;5256;48.728;9.140;2022-11-12T05:29:45;2.30;99.90
10419;DHT22;5256;48.728;9.140;2022-11-12T05:32:14;2.30;99.90
10419;DHT22;5256;48.728;9.140;2022-11-12T05:34:40;2.30;99.90
10419;DHT22;5256;48.728;9.140;2022-11-12T05:37:07;2.30;99.90
10419;DHT22;5256;48.728;9.140;2022-11-12T05:39:33;2.30;99.90
10419;DHT22;5256;48.728;9.140;2022-11-12T05:41:59;2.30;99.90
10419;DHT22;5256;48.728;9.140;2022-11-12T05:44:24;2.30;99.90
10419;DHT22;5256;48.728;9.140;2022-11-12T05:46:50;2.30;99.90
10419;DHT22;5256;48.728;9.140;2022-11-12T05:49:16;2.30;99.90
10419;DHT22;5256;48.728;9.140;2022-11-12T05:51:42;2.20;99.90
10419;DHT22;5256;48.728;9.140;2022-11-12T05:54:08;2.10;99.90
10419;DHT22;5256;48.728;9.140;2022-11-12T05:56:34;2.10;99.90
10419;DHT22;5256;48.728;9.140;2022-11-12T05:59:01;2.00;99.90
10419;DHT22;5256;48.728;9.140;2022-11-12T06:01:27;2.00;99.90
10419;DHT22;5256;48.728;9.140;2022-11-12T06:03:52;1.90;99.90
10419;DHT22;5256;48.728;9.140;2022-11-12T06:06:18;1.90;99.90
10419;DHT22;5256;48.728;9.140;2022-11-12T06:08:43;1.90;99.90
10419;DHT22;5256;48.728;9.140;2022-11-12T06:11:09;1.90;99.90
10419;DHT22;5256;48.728;9.140;2022-11-12T06:13:35;1.80;99.90
10419;DHT22;5256;48.728;9.140;2022-11-12T06:16:00;1.80;99.90
10419;DHT22;5256;48.728;9.140;2022-11-12T06:18:26;1.80;99.90
10419;DHT22;5256;48.728;9.140;2022-11-12T06:20:52;1.70;99.90
10419;DHT22;5256;48.728;9.140;2022-11-12T06:23:36;1.80;99.90
10419;DHT22;5256;48.728;9.140;2022-11-12T06:26:03;1.80;99.90
10419;DHT22;5256;48.728;9.140;2022-11-12T06:28:28;1.70;99.90
10419;DHT22;5256;48.728;9.140;2022-11-12T06:30:54;1.70;99.90
10419;DHT22;5256;48.728;9.140;2022-11-12T06:33:20;1.70;99.90
10419;DHT22;5256;48.728;9.140;2022-11-12T06:35:46;1.70;99.90
10419;DHT22;5256;48.728;9.140;2022-11-12T06:38:12;1.70;99.90
10419;DHT22;5256;48.728;9.140;2022-11-12T06:40:44;1.70;99.90
10419;DHT22;5256;48.728;9.140;2022-11-12T06:43:09;1.70;99.90
10419;DHT22;5256;48.728;9.140;2022-11-12T06:45:36;1.70;99.90
10419;DHT22;5256;48.728;9.140;2022-11-12T06:48:02;1.70;99.90
10419;DHT22;5256;48.728;9.140;2022-11-12T06:50:28;1.70;99.90
10419;DHT22;5256;48.728;9.140;2022-11-12T06:52:57;1.70;99.90
10419;DHT22;5256;48.728;9.140;2022-11-12T06:55:23;1.80;99.90
10419;DHT22;5256;48.728;9.140;2022-11-12T06:57:52;1.80;99.90
10419;DHT22;5256;48.728;9.140;2022-11-12T07:00:18;1.90;99.90
10419;DHT22;5256;48.728;9.140;2022-11-12T07:02:44;1.90;99.90
10419;DHT22;5256;48.728;9.140;2022-11-12T07:05:10;1.90;99.90
10419;DHT22;5256;48.728;9.140;2022-11-12T07:07:35;2.00;99.90
10419;DHT22;5256;48.728;9.140;2022-11-12T07:10:01;2.00;99.90
10419;DHT22;5256;48.728;9.140;2022-11-12T07:12:27;2.00;99.90
10419;DHT22;5256;48.728;9.140;2022-11-12T07:14:52;2.10;99.90
10419;DHT22;5256;48.728;9.140;2022-11-12T07:17:18;2.20;99.90
10419;DHT22;5256;48.728;9.140;2022-11-12T07:19:44;2.30;99.90
10419;DHT22;5256;48.728;9.140;2022-11-12T07:22:09;2.40;99.90
10419;DHT22;5256;48.728;9.140;2022-11-12T07:24:34;2.50;99.90
10419;DHT22;5256;48.728;9.140;2022-11-12T07:27:00;2.60;99.90
10419;DHT22;5256;48.728;9.140;2022-11-12T07:29:26;2.70;99.90
10419;DHT22;5256;48.728;9.140;2022-11-12T07:31:51;2.90;99.90
10419;DHT22;5256;48.728;9.140;2022-11-12T07:34:17;3.10;99.90
10419;DHT22;5256;48.728;9.140;2022-11-12T07:36:42;3.20;99.90
10419;DHT22;5256;48.728;9.140;2022-11-12T07:39:08;3.30;99.90
10419;DHT22;5256;48.728;9.140;2022-11-12T07:41:33;3.40;99.90
10419;DHT22;5256;48.728;9.140;2022-11-12T07:43:59;3.60;99.90
10419;DHT22;5256;48.728;9.140;2022-11-12T07:46:26;3.70;99.90
10419;DHT22;5256;48.728;9.140;2022-11-12T07:48:52;3.80;99.90
10419;DHT22;5256;48.728;9.140;2022-11-12T07:51:26;3.80;99.90
10419;DHT22;5256;48.728;9.140;2022-11-12T07:53:53;3.90;99.90
10419;DHT22;5256;48.728;9.140;2022-11-12T07:56:20;4.00;99.90
10419;DHT22;5256;48.728;9.140;2022-11-12T07:58:47;4.10;99.90
10419;DHT22;5256;48.728;9.140;2022-11-12T08:01:29;4.20;99.90
10419;DHT22;5256;48.728;9.140;2022-11-12T08:03:56;4.30;99.90
10419;DHT22;5256;48.728;9.140;2022-11-12T08:06:22;4.40;99.90
10419;DHT22;5256;48.728;9.140;2022-11-12T08:08:51;4.40;99.90
10419;DHT22;5256;48.728;9.140;2022-11-12T08:11:17;4.50;99.90
10419;DHT22;5256;48.728;9.140;2022-11-12T08:13:42;4.60;99.90
10419;DHT22;5256;48.728;9.140;2022-11-12T08:16:08;4.80;99.90
10419;DHT22;5256;48.728;9.140;2022-11-12T08:18:33;4.90;99.90
10419;DHT22;5256;48.728;9.140;2022-11-12T08:21:00;5.00;99.90
10419;DHT22;5256;48.728;9.140;2022-11-12T08:23:26;5.10;99.90
10419;DHT22;5256;48.728;9.140;2022-11-12T08:25:57;5.20;99.90
10419;DHT22;5256;48.728;9.140;2022-11-12T08:28:23;5.30;99.90
10419;DHT22;5256;48.728;9.140;2022-11-12T08:30:48;5.40;99.90
10419;DHT22;5256;48.728;9.140;2022-11-12T08:33:14;5.50;99.90
10419;DHT22;5256;48.728;9.140;2022-11-12T08:35:39;5.50;99.90
10419;DHT22;5256;48.728;9.140;2022-11-12T08:38:05;5.60;99.90
10419;DHT22;5256;48.728;9.140;2022-11-12T08:40:35;5.60;99.90
10419;DHT22;5256;48.728;9.140;2022-11-12T08:43:07;5.50;99.90
10419;DHT22;5256;48.728;9.140;2022-11-12T08:45:35;5.70;99.90
10419;DHT22;5256;48.728;9.140;2022-11-12T08:48:03;5.70;99.90
10419;DHT22;5256;48.728;9.140;2022-11-12T08:50:31;5.90;99.90
10419;DHT22;5256;48.728;9.140;2022-11-12T08:53:01;5.90;99.90
10419;DHT22;5256;48.728;9.140;2022-11-12T08:55:28;6.00;99.90
10419;DHT22;5256;48.728;9.140;2022-11-12T08:57:54;6.10;99.90
10419;DHT22;5256;48.728;9.140;2022-11-12T09:00:19;6.20;99.90
10419;DHT22;5256;48.728;9.140;2022-11-12T09:02:45;6.30;99.90
10419;DHT22;5256;48.728;9.140;2022-11-12T09:05:11;6.40;99.90
10419;DHT22;5256;48.728;9.140;2022-11-12T09:07:36;6.50;99.90
10419;DHT22;5256;48.728;9.140;2022-11-12T09:10:02;6.60;99.90
10419;DHT22;5256;48.728;9.140;2022-11-12T09:12:27;6.80;99.90
10419;DHT22;5256;48.728;9.140;2022-11-12T09:14:53;7.10;99.90
10419;DHT22;5256;48.728;9.140;2022-11-12T09:17:20;7.20;99.90
10419;DHT22;5256;48.728;9.140;2022-11-12T09:19:46;7.30;99.90
10419;DHT22;5256;48.728;9.140;2022-11-12T09:22:11;7.40;99.90
10419;DHT22;5256;48.728;9.140;2022-11-12T09:24:37;7.60;99.90
10419;DHT22;5256;48.728;9.140;2022-11-12T09:27:02;7.70;99.90
10419;DHT22;5256;48.728;9.140;2022-11-12T09:29:28;7.70;99.90
10419;DHT22;5256;48.728;9.140;2022-11-12T09:31:53;7.80;99.90
10419;DHT22;5256;48.728;9.140;2022-11-12T09:34:19;7.90;99.90
10419;DHT22;5256;48.728;9.140;2022-11-12T09:36:45;8.10;99.90
10419;DHT22;5256;48.728;9.140;2022-11-12T09:39:10;8.00;99.90
10419;DHT22;5256;48.728;9.140;2022-11-12T09:41:42;8.00;99.90
10419;DHT22;5256;48.728;9.140;2022-11-12T09:44:21;8.10;99.90
10419;DHT22;5256;48.728;9.140;2022-11-12T09:46:54;8.20;99.90
10419;DHT22;5256;48.728;9.140;2022-11-12T09:49:38;8.20;99.90
10419;DHT22;5256;48.728;9.140;2022-11-12T09:52:24;8.40;99.90
10419;DHT22;5256;48.728;9.140;2022-11-12T09:54:58;8.50;99.90
10419;DHT22;5256;48.728;9.140;2022-11-12T09:57:25;8.40;99.90
10419;DHT22;5256;48.728;9.140;2022-11-12T09:59:51;8.50;99.90
10419;DHT22;5256;48.728;9.140;2022-11-12T10:08:01;8.90;99.90
10419;DHT22;5256;48.728;9.140;2022-11-12T10:10:44;9.00;99.90
10419;DHT22;5256;48.728;9.140;2022-11-12T10:24:00;9.30;99.90
10419;DHT22;5256;48.728;9.140;2022-11-12T10:26:26;9.30;99.90
10419;DHT22;5256;48.728;9.140;2022-11-12T10:31:35;9.50;99.90
10419;DHT22;5256;48.728;9.140;2022-11-12T10:34:16;9.50;99.90
10419;DHT22;5256;48.728;9.140;2022-11-12T10:36:47;9.40;99.90
10419;DHT22;5256;48.728;9.140;2022-11-12T10:42:07;9.30;99.90
10419;DHT22;5256;48.728;9.140;2022-11-12T10:44:34;9.50;99.90
10419;DHT22;5256;48.728;9.140;2022-11-12T10:52:33;9.60;99.90
10419;DHT22;5256;48.728;9.140;2022-11-12T10:57:38;9.60;99.90
10419;DHT22;5256;48.728;9.140;2022-11-12T11:02:53;9.90;99.90
10419;DHT22;5256;48.728;9.140;2022-11-12T11:05:34;10.00;99.90
10419;DHT22;5256;48.728;9.140;2022-11-12T11:08:01;9.90;99.90
10419;DHT22;5256;48.728;9.140;2022-11-12T11:10:33;9.90;99.90
10419;DHT22;5256;48.728;9.140;2022-11-12T11:13:19;9.90;99.90
10419;DHT22;5256;48.728;9.140;2022-11-12T11:16:00;10.20;99.90
10419;DHT22;5256;48.728;9.140;2022-11-12T11:18:27;10.40;99.90
10419;DHT22;5256;48.728;9.140;2022-11-12T11:27:11;10.70;99.90
10419;DHT22;5256;48.728;9.140;2022-11-12T11:30:07;10.80;99.90
10419;DHT22;5256;48.728;9.140;2022-11-12T11:36:05;10.50;99.90
10419;DHT22;5256;48.728;9.140;2022-11-12T11:38:45;10.40;99.90
10419;DHT22;5256;48.728;9.140;2022-11-12T11:49:44;10.60;99.90
10419;DHT22;5256;48.728;9.140;2022-11-12T11:52:40;10.60;99.90
10419;DHT22;5256;48.728;9.140;2022-11-12T11:55:44;10.70;99.90
10419;DHT22;5256;48.728;9.140;2022-11-12T11:58:24;10.90;99.90
10419;DHT22;5256;48.728;9.140;2022-11-12T12:03:30;10.90;99.90
10419;DHT22;5256;48.728;9.140;2022-11-12T12:08:54;10.90;99.90
10419;DHT22;5256;48.728;9.140;2022-11-12T12:14:23;11.00;99.90
10419;DHT22;5256;48.728;9.140;2022-11-12T12:17:02;11.20;99.90
10419;DHT22;5256;48.728;9.140;2022-11-12T12:22:09;11.20;99.90
10419;DHT22;5256;48.728;9.140;2022-11-12T12:24:55;11.20;99.90
10419;DHT22;5256;48.728;9.140;2022-11-12T12:27:26;11.10;99.90
10419;DHT22;5256;48.728;9.140;2022-11-12T12:33:26;11.20;99.90
10419;DHT22;5256;48.728;9.140;2022-11-12T12:35:49;11.30;99.90
10419;DHT22;5256;48.728;9.140;2022-11-12T12:41:11;11.40;99.90
10419;DHT22;5256;48.728;9.140;2022-11-12T12:43:49;11.40;99.90
10419;DHT22;5256;48.728;9.140;2022-11-12T12:46:20;11.60;99.90
10419;DHT22;5256;48.728;9.140;2022-11-12T12:48:47;11.60;99.90
10419;DHT22;5256;48.728;9.140;2022-11-12T12:51:16;11.80;99.90
10419;DHT22;5256;48.728;9.140;2022-11-12T12:53:42;11.80;99.90
10419;DHT22;5256;48.728;9.140;2022-11-12T13:04:04;11.70;99.90
10419;DHT22;5256;48.728;9.140;2022-11-12T13:09:19;12.10;99.90
10419;DHT22;5256;48.728;9.140;2022-11-12T13:11:51;12.00;99.90
10419;DHT22;5256;48.728;9.140;2022-11-12T13:20:14;12.00;99.90
10419;DHT22;5256;48.728;9.140;2022-11-12T13:48:14;12.00;99.90
10419;DHT22;5256;48.728;9.140;2022-11-12T13:50:42;11.80;99.90
10419;DHT22;5256;48.728;9.140;2022-11-12T13:53:19;11.90;99.90
10419;DHT22;5256;48.728;9.140;2022-11-12T13:55:50;11.90;99.90
10419;DHT22;5256;48.728;9.140;2022-11-12T13:58:25;11.90;99.90
10419;DHT22;5256;48.728;9.140;2022-11-12T14:00:56;11.90;99.90
10419;DHT22;5256;48.728;9.140;2022-11-12T14:03:25;11.90;99.90
10419;DHT22;5256;48.728;9.140;2022-11-12T14:05:53;11.90;99.90
10419;DHT22;5256;48.728;9.140;2022-11-12T14:13:51;11.70;99.90
10419;DHT22;5256;48.728;9.140;2022-11-12T14:24:33;11.80;99.90
10419;DHT22;5256;48.728;9.140;2022-11-12T14:26:59;11.70;99.90
10419;DHT22;5256;48.728;9.140;2022-11-12T14:29:25;11.50;99.90
10419;DHT22;5256;48.728;9.140;2022-11-12T14:32:01;11.40;99.90
10419;DHT22;5256;48.728;9.140;2022-11-12T14:34:31;11.40;99.90
10419;DHT22;5256;48.728;9.140;2022-11-12T14:36:58;11.30;99.90
10419;DHT22;5256;48.728;9.140;2022-11-12T14:39:25;11.20;99.90
10419;DHT22;5256;48.728;9.140;2022-11-12T14:41:52;11.20;99.90
10419;DHT22;5256;48.728;9.140;2022-11-12T14:44:22;11.20;99.90
10419;DHT22;5256;48.728;9.140;2022-11-12T14:46:53;11.20;99.90
10419;DHT22;5256;48.728;9.140;2022-11-12T14:52:36;11.20;99.90
10419;DHT22;5256;48.728;9.140;2022-11-12T14:55:27;11.10;99.90
10419;DHT22;5256;48.728;9.140;2022-11-12T14:57:53;11.00;99.90
10419;DHT22;5256;48.728;9.140;2022-11-12T15:00:39;10.90;99.90
10419;DHT22;5256;48.728;9.140;2022-11-12T15:03:06;10.90;99.90
10419;DHT22;5256;48.728;9.140;2022-11-12T15:05:55;10.80;99.90
10419;DHT22;5256;48.728;9.140;2022-11-12T15:08:33;10.70;99.90
10419;DHT22;5256;48.728;9.140;2022-11-12T15:11:21;10.40;99.90
10419;DHT22;5256;48.728;9.140;2022-11-12T15:13:48;10.20;99.90
10419;DHT22;5256;48.728;9.140;2022-11-12T15:16:25;10.20;99.90
10419;DHT22;5256;48.728;9.140;2022-11-12T15:19:21;10.00;99.90
10419;DHT22;5256;48.728;9.140;2022-11-12T15:21:55;9.90;99.90
10419;DHT22;5256;48.728;9.140;2022-11-12T15:24:29;9.80;99.90
10419;DHT22;5256;48.728;9.140;2022-11-12T15:26:57;9.70;99.90
10419;DHT22;5256;48.728;9.140;2022-11-12T15:29:29;9.50;99.90
10419;DHT22;5256;48.728;9.140;2022-11-12T15:37:01;9.20;99.90
10419;DHT22;5256;48.728;9.140;2022-11-12T15:39:28;9.00;99.90
10419;DHT22;5256;48.728;9.140;2022-11-12T15:42:13;9.00;99.90
10419;DHT22;5256;48.728;9.140;2022-11-12T15:44:40;8.90;99.90
10419;DHT22;5256;48.728;9.140;2022-11-12T15:47:08;8.80;99.90
10419;DHT22;5256;48.728;9.140;2022-11-12T15:49:49;8.70;99.90
10419;DHT22;5256;48.728;9.140;2022-11-12T15:52:15;8.50;99.90
10419;DHT22;5256;48.728;9.140;2022-11-12T15:54:40;8.40;99.90
10419;DHT22;5256;48.728;9.140;2022-11-12T15:57:16;8.30;99.90
10419;DHT22;5256;48.728;9.140;2022-11-12T15:59:43;8.20;99.90
10419;DHT22;5256;48.728;9.140;2022-11-12T16:02:11;8.10;99.90
10419;DHT22;5256;48.728;9.140;2022-11-12T16:04:37;8.00;99.90
10419;DHT22;5256;48.728;9.140;2022-11-12T16:07:02;8.00;99.90
10419;DHT22;5256;48.728;9.140;2022-11-12T16:09:34;7.90;99.90
10419;DHT22;5256;48.728;9.140;2022-11-12T16:11:59;7.70;99.90
10419;DHT22;5256;48.728;9.140;2022-11-12T16:14:26;7.60;99.90
10419;DHT22;5256;48.728;9.140;2022-11-12T16:16:52;7.50;99.90
10419;DHT22;5256;48.728;9.140;2022-11-12T16:19:18;7.40;99.90
10419;DHT22;5256;48.728;9.140;2022-11-12T16:21:44;7.30;99.90
10419;DHT22;5256;48.728;9.140;2022-11-12T16:24:09;7.10;99.90
10419;DHT22;5256;48.728;9.140;2022-11-12T16:26:36;7.00;99.90
10419;DHT22;5256;48.728;9.140;2022-11-12T16:29:04;7.00;99.90
10419;DHT22;5256;48.728;9.140;2022-11-12T16:31:33;7.00;99.90
10419;DHT22;5256;48.728;9.140;2022-11-12T16:33:59;6.90;99.90
10419;DHT22;5256;48.728;9.140;2022-11-12T16:36:25;6.90;99.90
10419;DHT22;5256;48.728;9.140;2022-11-12T16:38:50;6.80;99.90
10419;DHT22;5256;48.728;9.140;2022-11-12T16:41:16;6.70;99.90
10419;DHT22;5256;48.728;9.140;2022-11-12T16:43:41;6.60;99.90
10419;DHT22;5256;48.728;9.140;2022-11-12T16:46:23;6.70;99.90
10419;DHT22;5256;48.728;9.140;2022-11-12T16:48:51;6.60;99.90
10419;DHT22;5256;48.728;9.140;2022-11-12T16:51:17;6.50;99.90
10419;DHT22;5256;48.728;9.140;2022-11-12T16:53:43;6.40;99.90
10419;DHT22;5256;48.728;9.140;2022-11-12T16:56:18;6.30;99.90
10419;DHT22;5256;48.728;9.140;2022-11-12T16:58:44;6.30;99.90
10419;DHT22;5256;48.728;9.140;2022-11-12T17:01:14;6.30;99.90
10419;DHT22;5256;48.728;9.140;2022-11-12T17:03:48;6.20;99.90
10419;DHT22;5256;48.728;9.140;2022-11-12T17:06:14;6.10;99.90
10419;DHT22;5256;48.728;9.140;2022-11-12T17:08:39;6.00;99.90
10419;DHT22;5256;48.728;9.140;2022-11-12T17:11:06;6.00;99.90
10419;DHT22;5256;48.728;9.140;2022-11-12T17:13:32;5.90;99.90
10419;DHT22;5256;48.728;9.140;2022-11-12T17:15:58;5.80;99.90
10419;DHT22;5256;48.728;9.140;2022-11-12T17:18:23;5.70;99.90
10419;DHT22;5256;48.728;9.140;2022-11-12T17:20:49;5.70;99.90
10419;DHT22;5256;48.728;9.140;2022-11-12T17:23:15;5.60;99.90
10419;DHT22;5256;48.728;9.140;2022-11-12T17:25:40;5.60;99.90
10419;DHT22;5256;48.728;9.140;2022-11-12T17:28:06;5.50;99.90
10419;DHT22;5256;48.728;9.140;2022-11-12T17:30:31;5.50;99.90
10419;DHT22;5256;48.728;9.140;2022-11-12T17:32:58;5.40;99.90
10419;DHT22;5256;48.728;9.140;2022-11-12T17:35:24;5.30;99.90
10419;DHT22;5256;48.728;9.140;2022-11-12T17:37:49;5.30;99.90
10419;DHT22;5256;48.728;9.140;2022-11-12T17:40:15;5.30;99.90
10419;DHT22;5256;48.728;9.140;2022-11-12T17:42:41;5.20;99.90
10419;DHT22;5256;48.728;9.140;2022-11-12T17:45:07;5.20;99.90
10419;DHT22;5256;48.728;9.140;2022-11-12T17:47:32;5.10;99.90
10419;DHT22;5256;48.728;9.140;2022-11-12T17:49:58;5.10;99.90
10419;DHT22;5256;48.728;9.140;2022-11-12T17:52:23;5.00;99.90
10419;DHT22;5256;48.728;9.140;2022-11-12T17:54:49;5.00;99.90
10419;DHT22;5256;48.728;9.140;2022-11-12T17:57:14;5.00;99.90
10419;DHT22;5256;48.728;9.140;2022-11-12T17:59:40;4.90;99.90
10419;DHT22;5256;48.728;9.140;2022-11-12T18:02:05;4.90;99.90
10419;DHT22;5256;48.728;9.140;2022-11-12T18:04:31;5.00;99.90
10419;DHT22;5256;48.728;9.140;2022-11-12T18:06:57;5.00;99.90
10419;DHT22;5256;48.728;9.140;2022-11-12T18:09:22;4.90;99.90
10419;DHT22;5256;48.728;9.140;2022-11-12T18:11:50;4.90;99.90
10419;DHT22;5256;48.728;9.140;2022-11-12T18:14:18;4.90;99.90
10419;DHT22;5256;48.728;9.140;2022-11-12T18:16:44;4.80;99.90
10419;DHT22;5256;48.728;9.140;2022-11-12T18:19:11;4.70;99.90
10419;DHT22;5256;48.728;9.140;2022-11-12T18:21:38;4.60;99.90